sensor_id;sensor_type;location;lat;lon;timestamp;temperature;humidity
21261;DHT22;10788;47.930;9.766;2023-01-15T00:01:03;8.10;99.90
21261;DHT22;10788;47.930;9.766;2023-01-15T00:03:29;8.20;99.90
21261;DHT22;10788;47.930;9.766;2023-01-15T00:05:56;8.20;99.90
21261;DHT22;10788;47.930;9.766;2023-01-15T00:08:25;8.20;99.90
21261;DHT22;10788;47.930;9.766;2023-01-15T00:10:51;8.30;99.90
21261;DHT22;10788;47.930;9.766;2023-01-15T00:13:17;8.20;99.90
21261;DHT22;10788;47.930;9.766;2023-01-15T00:15:42;8.20;99.90
21261;DHT22;10788;47.930;9.766;2023-01-15T00:18:08;8.20;99.90
21261;DHT22;10788;47.930;9.766;2023-01-15T00:20:34;8.20;99.90
21261;DHT22;10788;47.930;9.766;2023-01-15T00:22:59;8.10;99.90
21261;DHT22;10788;47.930;9.766;2023-01-15T00:25:25;8.00;99.90
21261;DHT22;10788;47.930;9.766;2023-01-15T00:28:29;8.00;99.90
21261;DHT22;10788;47.930;9.766;2023-01-15T00:30:55;7.90;99.90
21261;DHT22;10788;47.930;9.766;2023-01-15T00:33:20;8.10;99.90
21261;DHT22;10788;47.930;9.766;2023-01-15T00:35:46;8.20;99.90
21261;DHT22;10788;47.930;9.766;2023-01-15T00:38:11;8.30;99.90
21261;DHT22;10788;47.930;9.766;2023-01-15T00:40:37;8.40;99.90
21261;DHT22;10788;47.930;9.766;2023-01-15T00:43:02;8.40;99.90
21261;DHT22;10788;47.930;9.766;2023-01-15T00:45:28;8.50;99.90
21261;DHT22;10788;47.930;9.766;2023-01-15T00:47:54;8.70;99.90
21261;DHT22;10788;47.930;9.766;2023-01-15T00:50:19;8.60;99.90
21261;DHT22;10788;47.930;9.766;2023-01-15T00:52:45;8.70;99.90
21261;DHT22;10788;47.930;9.766;2023-01-15T00:55:10;8.70;99.90
21261;DHT22;10788;47.930;9.766;2023-01-15T00:57:36;8.70;99.90
21261;DHT22;10788;47.930;9.766;2023-01-15T01:00:03;8.70;99.90
21261;DHT22;10788;47.930;9.766;2023-01-15T01:02:28;8.80;99.90
21261;DHT22;10788;47.930;9.766;2023-01-15T01:04:54;8.80;99.90
21261;DHT22;10788;47.930;9.766;2023-01-15T01:07:20;8.80;99.90
21261;DHT22;10788;47.930;9.766;2023-01-15T01:09:45;8.80;99.90
21261;DHT22;10788;47.930;9.766;2023-01-15T01:12:11;8.90;99.90
21261;DHT22;10788;47.930;9.766;2023-01-15T01:14:37;8.90;99.90
21261;DHT22;10788;47.930;9.766;2023-01-15T01:17:03;8.90;99.90
21261;DHT22;10788;47.930;9.766;2023-01-15T01:19:28;8.90;99.90
21261;DHT22;10788;47.930;9.766;2023-01-15T01:21:54;8.90;99.90
21261;DHT22;10788;47.930;9.766;2023-01-15T01:24:22;8.80;99.90
21261;DHT22;10788;47.930;9.766;2023-01-15T01:26:48;8.90;99.90
21261;DHT22;10788;47.930;9.766;2023-01-15T01:29:19;8.90;99.90
21261;DHT22;10788;47.930;9.766;2023-01-15T01:31:45;9.00;99.90
21261;DHT22;10788;47.930;9.766;2023-01-15T01:34:12;9.10;99.90
21261;DHT22;10788;47.930;9.766;2023-01-15T01:36:39;9.20;99.90
21261;DHT22;10788;47.930;9.766;2023-01-15T01:39:07;9.30;99.90
21261;DHT22;10788;47.930;9.766;2023-01-15T01:41:33;9.30;99.90
21261;DHT22;10788;47.930;9.766;2023-01-15T01:46:31;9.30;99.90
21261;DHT22;10788;47.930;9.766;2023-01-15T01:49:11;9.30;99.90
21261;DHT22;10788;47.930;9.766;2023-01-15T01:51:59;9.30;99.90
21261;DHT22;10788;47.930;9.766;2023-01-15T01:54:28;9.50;99.90
21261;DHT22;10788;47.930;9.766;2023-01-15T01:56:55;9.30;99.90
21261;DHT22;10788;47.930;9.766;2023-01-15T01:59:23;9.40;99.90
21261;DHT22;10788;47.930;9.766;2023-01-15T02:01:49;9.40;99.90
21261;DHT22;10788;47.930;9.766;2023-01-15T02:04:17;9.30;99.90
21261;DHT22;10788;47.930;9.766;2023-01-15T02:06:44;9.30;99.90
21261;DHT22;10788;47.930;9.766;2023-01-15T02:09:10;9.30;99.90
21261;DHT22;10788;47.930;9.766;2023-01-15T02:11:36;9.40;99.90
21261;DHT22;10788;47.930;9.766;2023-01-15T02:14:27;9.30;99.90
21261;DHT22;10788;47.930;9.766;2023-01-15T02:17:05;9.30;99.90
21261;DHT22;10788;47.930;9.766;2023-01-15T02:22:23;9.30;99.90
21261;DHT22;10788;47.930;9.766;2023-01-15T02:27:31;9.30;99.90
21261;DHT22;10788;47.930;9.766;2023-01-15T02:30:12;9.30;99.90
21261;DHT22;10788;47.930;9.766;2023-01-15T02:32:57;9.30;99.90
21261;DHT22;10788;47.930;9.766;2023-01-15T02:38:04;9.20;99.90
21261;DHT22;10788;47.930;9.766;2023-01-15T02:40:31;9.10;99.90
21261;DHT22;10788;47.930;9.766;2023-01-15T02:42:58;9.10;99.90
21261;DHT22;10788;47.930;9.766;2023-01-15T02:45:30;9.10;99.90
21261;DHT22;10788;47.930;9.766;2023-01-15T02:48:04;9.10;99.90
21261;DHT22;10788;47.930;9.766;2023-01-15T02:50:37;9.00;99.90
21261;DHT22;10788;47.930;9.766;2023-01-15T02:53:07;9.00;99.90
21261;DHT22;10788;47.930;9.766;2023-01-15T02:55:37;9.00;99.90
21261;DHT22;10788;47.930;9.766;2023-01-15T02:58:08;9.00;99.90
21261;DHT22;10788;47.930;9.766;2023-01-15T03:00:38;9.00;99.90
21261;DHT22;10788;47.930;9.766;2023-01-15T03:03:23;9.00;99.90
21261;DHT22;10788;47.930;9.766;2023-01-15T03:08:24;9.00;99.90
21261;DHT22;10788;47.930;9.766;2023-01-15T03:13:46;9.00;99.90
21261;DHT22;10788;47.930;9.766;2023-01-15T03:16:32;8.90;99.90
21261;DHT22;10788;47.930;9.766;2023-01-15T03:26:59;8.90;99.90
21261;DHT22;10788;47.930;9.766;2023-01-15T03:29:39;8.80;99.90
21261;DHT22;10788;47.930;9.766;2023-01-15T03:32:06;8.90;99.90
21261;DHT22;10788;47.930;9.766;2023-01-15T03:34:45;8.90;99.90
21261;DHT22;10788;47.930;9.766;2023-01-15T03:37:12;8.90;99.90
21261;DHT22;10788;47.930;9.766;2023-01-15T03:39:38;9.00;99.90
21261;DHT22;10788;47.930;9.766;2023-01-15T03:50:14;8.90;99.90
21261;DHT22;10788;47.930;9.766;2023-01-15T03:52:54;8.90;99.90
21261;DHT22;10788;47.930;9.766;2023-01-15T03:55:38;8.90;99.90
21261;DHT22;10788;47.930;9.766;2023-01-15T03:58:13;8.90;99.90
21261;DHT22;10788;47.930;9.766;2023-01-15T04:00:48;8.90;99.90
21261;DHT22;10788;47.930;9.766;2023-01-15T04:03:15;8.90;99.90
21261;DHT22;10788;47.930;9.766;2023-01-15T04:05:42;8.90;99.90
21261;DHT22;10788;47.930;9.766;2023-01-15T04:08:10;9.00;99.90
21261;DHT22;10788;47.930;9.766;2023-01-15T04:10:36;8.90;99.90
21261;DHT22;10788;47.930;9.766;2023-01-15T04:13:02;8.90;99.90
21261;DHT22;10788;47.930;9.766;2023-01-15T04:15:28;8.90;99.90
21261;DHT22;10788;47.930;9.766;2023-01-15T04:17:53;8.80;99.90
21261;DHT22;10788;47.930;9.766;2023-01-15T04:20:19;8.80;99.90
21261;DHT22;10788;47.930;9.766;2023-01-15T04:22:45;8.80;99.90
21261;DHT22;10788;47.930;9.766;2023-01-15T04:25:10;8.90;99.90
21261;DHT22;10788;47.930;9.766;2023-01-15T04:27:36;8.90;99.90
21261;DHT22;10788;47.930;9.766;2023-01-15T04:30:02;8.90;99.90
21261;DHT22;10788;47.930;9.766;2023-01-15T04:32:27;8.90;99.90
21261;DHT22;10788;47.930;9.766;2023-01-15T04:34:53;8.90;99.90
21261;DHT22;10788;47.930;9.766;2023-01-15T04:37:19;8.90;99.90
21261;DHT22;10788;47.930;9.766;2023-01-15T04:39:46;8.90;99.90
21261;DHT22;10788;47.930;9.766;2023-01-15T04:42:13;8.90;99.90
21261;DHT22;10788;47.930;9.766;2023-01-15T04:44:58;8.80;99.90
21261;DHT22;10788;47.930;9.766;2023-01-15T04:47:23;9.00;99.90
21261;DHT22;10788;47.930;9.766;2023-01-15T04:49:49;9.00;99.90
21261;DHT22;10788;47.930;9.766;2023-01-15T04:52:15;9.00;99.90
21261;DHT22;10788;47.930;9.766;2023-01-15T04:54:41;9.00;99.90
21261;DHT22;10788;47.930;9.766;2023-01-15T04:57:06;9.10;99.90
21261;DHT22;10788;47.930;9.766;2023-01-15T04:59:32;9.10;99.90
21261;DHT22;10788;47.930;9.766;2023-01-15T05:01:58;9.10;99.90
21261;DHT22;10788;47.930;9.766;2023-01-15T05:04:24;9.00;99.90
21261;DHT22;10788;47.930;9.766;2023-01-15T05:06:49;9.00;99.90
21261;DHT22;10788;47.930;9.766;2023-01-15T05:09:15;9.00;99.90
21261;DHT22;10788;47.930;9.766;2023-01-15T05:11:41;8.90;99.90
21261;DHT22;10788;47.930;9.766;2023-01-15T05:14:07;8.90;99.90
21261;DHT22;10788;47.930;9.766;2023-01-15T05:16:33;8.90;99.90
21261;DHT22;10788;47.930;9.766;2023-01-15T05:19:00;8.80;99.90
21261;DHT22;10788;47.930;9.766;2023-01-15T05:21:32;8.80;99.90
21261;DHT22;10788;47.930;9.766;2023-01-15T05:23:59;8.80;99.90
21261;DHT22;10788;47.930;9.766;2023-01-15T05:26:28;8.80;99.90
21261;DHT22;10788;47.930;9.766;2023-01-15T05:28:56;8.80;99.90
21261;DHT22;10788;47.930;9.766;2023-01-15T05:31:22;8.80;99.90
21261;DHT22;10788;47.930;9.766;2023-01-15T05:33:49;8.70;99.90
21261;DHT22;10788;47.930;9.766;2023-01-15T05:36:24;8.70;99.90
21261;DHT22;10788;47.930;9.766;2023-01-15T05:38:50;8.80;99.90
21261;DHT22;10788;47.930;9.766;2023-01-15T05:41:18;8.90;99.90
21261;DHT22;10788;47.930;9.766;2023-01-15T05:44:08;8.70;99.90
21261;DHT22;10788;47.930;9.766;2023-01-15T05:46:35;8.80;99.90
21261;DHT22;10788;47.930;9.766;2023-01-15T05:49:03;8.60;99.90
21261;DHT22;10788;47.930;9.766;2023-01-15T05:51:29;8.60;99.90
21261;DHT22;10788;47.930;9.766;2023-01-15T05:53:56;8.60;99.90
21261;DHT22;10788;47.930;9.766;2023-01-15T05:56:22;8.50;99.90
21261;DHT22;10788;47.930;9.766;2023-01-15T05:58:47;8.50;99.90
21261;DHT22;10788;47.930;9.766;2023-01-15T06:01:13;8.40;99.90
21261;DHT22;10788;47.930;9.766;2023-01-15T06:03:38;8.40;99.90
21261;DHT22;10788;47.930;9.766;2023-01-15T06:06:06;8.40;99.90
21261;DHT22;10788;47.930;9.766;2023-01-15T06:08:32;8.50;99.90
21261;DHT22;10788;47.930;9.766;2023-01-15T06:10:57;8.40;99.90
21261;DHT22;10788;47.930;9.766;2023-01-15T06:13:23;8.50;99.90
21261;DHT22;10788;47.930;9.766;2023-01-15T06:15:49;8.60;99.90
21261;DHT22;10788;47.930;9.766;2023-01-15T06:18:14;8.40;99.90
21261;DHT22;10788;47.930;9.766;2023-01-15T06:20:41;8.40;99.90
21261;DHT22;10788;47.930;9.766;2023-01-15T06:23:07;8.40;99.90
21261;DHT22;10788;47.930;9.766;2023-01-15T06:25:36;8.30;99.90
21261;DHT22;10788;47.930;9.766;2023-01-15T06:28:03;8.30;99.90
21261;DHT22;10788;47.930;9.766;2023-01-15T06:30:29;8.30;99.90
21261;DHT22;10788;47.930;9.766;2023-01-15T06:32:54;8.20;99.90
21261;DHT22;10788;47.930;9.766;2023-01-15T06:35:20;8.20;99.90
21261;DHT22;10788;47.930;9.766;2023-01-15T06:37:47;8.20;99.90
21261;DHT22;10788;47.930;9.766;2023-01-15T06:40:13;8.10;99.90
21261;DHT22;10788;47.930;9.766;2023-01-15T06:42:38;8.00;99.90
21261;DHT22;10788;47.930;9.766;2023-01-15T06:45:24;8.00;99.90
21261;DHT22;10788;47.930;9.766;2023-01-15T06:48:08;8.00;99.90
21261;DHT22;10788;47.930;9.766;2023-01-15T06:50:33;7.90;99.90
21261;DHT22;10788;47.930;9.766;2023-01-15T06:52:59;7.80;99.90
21261;DHT22;10788;47.930;9.766;2023-01-15T06:55:25;7.70;99.90
21261;DHT22;10788;47.930;9.766;2023-01-15T06:57:50;7.70;99.90
21261;DHT22;10788;47.930;9.766;2023-01-15T07:00:16;7.80;99.90
21261;DHT22;10788;47.930;9.766;2023-01-15T07:02:42;7.60;99.90
21261;DHT22;10788;47.930;9.766;2023-01-15T07:05:08;7.60;99.90
21261;DHT22;10788;47.930;9.766;2023-01-15T07:07:34;7.60;99.90
21261;DHT22;10788;47.930;9.766;2023-01-15T07:10:00;7.60;99.90
21261;DHT22;10788;47.930;9.766;2023-01-15T07:12:25;7.70;99.90
21261;DHT22;10788;47.930;9.766;2023-01-15T07:14:52;7.60;99.90
21261;DHT22;10788;47.930;9.766;2023-01-15T07:17:18;7.60;99.90
21261;DHT22;10788;47.930;9.766;2023-01-15T07:19:44;7.70;99.90
21261;DHT22;10788;47.930;9.766;2023-01-15T07:22:10;7.60;99.90
21261;DHT22;10788;47.930;9.766;2023-01-15T07:24:36;7.60;99.90
21261;DHT22;10788;47.930;9.766;2023-01-15T07:27:01;7.60;99.90
21261;DHT22;10788;47.930;9.766;2023-01-15T07:29:27;7.60;99.90
21261;DHT22;10788;47.930;9.766;2023-01-15T07:31:53;7.50;99.90
21261;DHT22;10788;47.930;9.766;2023-01-15T07:34:18;7.50;99.90
21261;DHT22;10788;47.930;9.766;2023-01-15T07:36:44;7.40;99.90
21261;DHT22;10788;47.930;9.766;2023-01-15T07:39:11;7.60;99.90
21261;DHT22;10788;47.930;9.766;2023-01-15T07:41:37;7.60;99.90
21261;DHT22;10788;47.930;9.766;2023-01-15T07:44:21;7.70;99.90
21261;DHT22;10788;47.930;9.766;2023-01-15T07:47:19;7.70;99.90
21261;DHT22;10788;47.930;9.766;2023-01-15T07:50:06;7.70;99.90
21261;DHT22;10788;47.930;9.766;2023-01-15T07:52:32;7.60;99.90
21261;DHT22;10788;47.930;9.766;2023-01-15T07:54:58;7.70;99.90
21261;DHT22;10788;47.930;9.766;2023-01-15T07:57:25;7.60;99.90
21261;DHT22;10788;47.930;9.766;2023-01-15T07:59:51;7.60;99.90
21261;DHT22;10788;47.930;9.766;2023-01-15T08:02:17;7.60;99.90
21261;DHT22;10788;47.930;9.766;2023-01-15T08:04:43;7.80;99.90
21261;DHT22;10788;47.930;9.766;2023-01-15T08:07:09;7.70;99.90
21261;DHT22;10788;47.930;9.766;2023-01-15T08:09:35;7.60;99.90
21261;DHT22;10788;47.930;9.766;2023-01-15T08:12:02;7.70;99.90
21261;DHT22;10788;47.930;9.766;2023-01-15T08:14:46;7.70;99.90
21261;DHT22;10788;47.930;9.766;2023-01-15T08:17:33;7.70;99.90
21261;DHT22;10788;47.930;9.766;2023-01-15T08:19:59;7.70;99.90
21261;DHT22;10788;47.930;9.766;2023-01-15T08:22:25;7.70;99.90
21261;DHT22;10788;47.930;9.766;2023-01-15T08:24:50;7.70;99.90
21261;DHT22;10788;47.930;9.766;2023-01-15T08:27:16;7.80;99.90
21261;DHT22;10788;47.930;9.766;2023-01-15T08:29:42;7.80;99.90
21261;DHT22;10788;47.930;9.766;2023-01-15T08:32:08;7.80;99.90
21261;DHT22;10788;47.930;9.766;2023-01-15T08:34:33;7.90;99.90
21261;DHT22;10788;47.930;9.766;2023-01-15T08:36:59;8.00;99.90
21261;DHT22;10788;47.930;9.766;2023-01-15T08:39:26;8.00;99.90
21261;DHT22;10788;47.930;9.766;2023-01-15T08:41:52;8.00;99.90
21261;DHT22;10788;47.930;9.766;2023-01-15T08:44:18;8.00;99.90
21261;DHT22;10788;47.930;9.766;2023-01-15T08:46:49;8.00;99.90
21261;DHT22;10788;47.930;9.766;2023-01-15T08:49:15;8.00;99.90
21261;DHT22;10788;47.930;9.766;2023-01-15T08:51:42;7.90;99.90
21261;DHT22;10788;47.930;9.766;2023-01-15T08:54:08;7.90;99.90
21261;DHT22;10788;47.930;9.766;2023-01-15T08:56:33;7.80;99.90
21261;DHT22;10788;47.930;9.766;2023-01-15T08:59:03;7.80;99.90
21261;DHT22;10788;47.930;9.766;2023-01-15T09:01:29;7.90;99.90
21261;DHT22;10788;47.930;9.766;2023-01-15T09:03:54;8.10;99.90
21261;DHT22;10788;47.930;9.766;2023-01-15T09:06:20;8.20;99.90
21261;DHT22;10788;47.930;9.766;2023-01-15T09:08:46;8.30;99.90
21261;DHT22;10788;47.930;9.766;2023-01-15T09:11:11;8.30;99.90
21261;DHT22;10788;47.930;9.766;2023-01-15T09:13:38;8.30;99.90
21261;DHT22;10788;47.930;9.766;2023-01-15T09:16:04;8.30;99.90
21261;DHT22;10788;47.930;9.766;2023-01-15T09:18:31;8.30;99.90
21261;DHT22;10788;47.930;9.766;2023-01-15T09:20:56;8.30;99.90
21261;DHT22;10788;47.930;9.766;2023-01-15T09:23:22;8.30;99.90
21261;DHT22;10788;47.930;9.766;2023-01-15T09:28:21;8.30;99.90
21261;DHT22;10788;47.930;9.766;2023-01-15T09:30:46;7.90;99.90
21261;DHT22;10788;47.930;9.766;2023-01-15T09:33:12;7.70;99.90
21261;DHT22;10788;47.930;9.766;2023-01-15T09:35:39;7.40;99.90
21261;DHT22;10788;47.930;9.766;2023-01-15T09:38:04;7.00;99.90
21261;DHT22;10788;47.930;9.766;2023-01-15T09:46:20;6.50;99.90
21261;DHT22;10788;47.930;9.766;2023-01-15T09:51:58;6.20;99.90
21261;DHT22;10788;47.930;9.766;2023-01-15T09:54:50;6.10;99.90
21261;DHT22;10788;47.930;9.766;2023-01-15T09:57:18;6.00;99.90
21261;DHT22;10788;47.930;9.766;2023-01-15T09:59:48;5.90;99.90
21261;DHT22;10788;47.930;9.766;2023-01-15T10:02:42;5.80;99.90
21261;DHT22;10788;47.930;9.766;2023-01-15T10:10:20;5.70;99.90
21261;DHT22;10788;47.930;9.766;2023-01-15T10:12:49;5.60;99.90
21261;DHT22;10788;47.930;9.766;2023-01-15T10:15:24;5.60;99.90
21261;DHT22;10788;47.930;9.766;2023-01-15T10:17:54;5.60;99.90
21261;DHT22;10788;47.930;9.766;2023-01-15T10:23:34;5.50;99.90
21261;DHT22;10788;47.930;9.766;2023-01-15T10:36:44;5.30;99.90
21261;DHT22;10788;47.930;9.766;2023-01-15T10:42:09;5.30;99.90
21261;DHT22;10788;47.930;9.766;2023-01-15T10:44:55;5.30;99.90
21261;DHT22;10788;47.930;9.766;2023-01-15T10:47:29;5.30;99.90
21261;DHT22;10788;47.930;9.766;2023-01-15T10:49:57;5.40;99.90
21261;DHT22;10788;47.930;9.766;2023-01-15T10:52:33;5.30;99.90
21261;DHT22;10788;47.930;9.766;2023-01-15T10:57:50;5.40;99.90
21261;DHT22;10788;47.930;9.766;2023-01-15T11:00:18;5.40;99.90
21261;DHT22;10788;47.930;9.766;2023-01-15T11:03:02;5.40;99.90
21261;DHT22;10788;47.930;9.766;2023-01-15T11:05:37;5.40;99.90
21261;DHT22;10788;47.930;9.766;2023-01-15T11:08:07;5.40;99.90
21261;DHT22;10788;47.930;9.766;2023-01-15T11:10:36;5.40;99.90
21261;DHT22;10788;47.930;9.766;2023-01-15T11:13:23;5.40;99.90
21261;DHT22;10788;47.930;9.766;2023-01-15T11:16:21;5.40;99.90
21261;DHT22;10788;47.930;9.766;2023-01-15T11:19:30;5.40;99.90
21261;DHT22;10788;47.930;9.766;2023-01-15T11:22:24;5.40;99.90
21261;DHT22;10788;47.930;9.766;2023-01-15T11:24:55;5.20;99.90
21261;DHT22;10788;47.930;9.766;2023-01-15T11:27:30;5.10;99.90
21261;DHT22;10788;47.930;9.766;2023-01-15T11:29:59;4.90;99.90
21261;DHT22;10788;47.930;9.766;2023-01-15T11:32:36;4.90;99.90
21261;DHT22;10788;47.930;9.766;2023-01-15T11:35:17;4.80;99.90
21261;DHT22;10788;47.930;9.766;2023-01-15T11:37:43;4.70;99.90
21261;DHT22;10788;47.930;9.766;2023-01-15T11:40:21;4.60;99.90
21261;DHT22;10788;47.930;9.766;2023-01-15T11:42:50;4.60;99.90
21261;DHT22;10788;47.930;9.766;2023-01-15T11:45:46;4.70;99.90
21261;DHT22;10788;47.930;9.766;2023-01-15T11:48:41;4.70;99.90
21261;DHT22;10788;47.930;9.766;2023-01-15T11:51:26;4.50;99.90
21261;DHT22;10788;47.930;9.766;2023-01-15T11:53:54;4.70;99.90
21261;DHT22;10788;47.930;9.766;2023-01-15T11:56:26;4.70;99.90
21261;DHT22;10788;47.930;9.766;2023-01-15T11:58:55;4.70;99.90
21261;DHT22;10788;47.930;9.766;2023-01-15T12:01:36;4.80;99.90
21261;DHT22;10788;47.930;9.766;2023-01-15T12:04:05;4.70;99.90
21261;DHT22;10788;47.930;9.766;2023-01-15T12:06:34;4.60;99.90
21261;DHT22;10788;47.930;9.766;2023-01-15T12:20:02;4.40;99.90
21261;DHT22;10788;47.930;9.766;2023-01-15T12:28:20;4.40;99.90
21261;DHT22;10788;47.930;9.766;2023-01-15T12:31:05;4.50;99.90
21261;DHT22;10788;47.930;9.766;2023-01-15T12:36:28;4.40;99.90
21261;DHT22;10788;47.930;9.766;2023-01-15T12:38:57;4.30;99.90
21261;DHT22;10788;47.930;9.766;2023-01-15T12:41:35;4.40;99.90
21261;DHT22;10788;47.930;9.766;2023-01-15T12:44:57;4.40;99.90
21261;DHT22;10788;47.930;9.766;2023-01-15T12:47:55;4.40;99.90
21261;DHT22;10788;47.930;9.766;2023-01-15T12:53:24;4.20;99.90
21261;DHT22;10788;47.930;9.766;2023-01-15T13:04:21;4.20;99.90
21261;DHT22;10788;47.930;9.766;2023-01-15T13:06:53;4.10;99.90
21261;DHT22;10788;47.930;9.766;2023-01-15T13:12:01;3.90;99.90
21261;DHT22;10788;47.930;9.766;2023-01-15T13:14:27;3.90;99.90
21261;DHT22;10788;47.930;9.766;2023-01-15T13:17:07;3.70;99.90
21261;DHT22;10788;47.930;9.766;2023-01-15T13:22:11;3.60;99.90
21261;DHT22;10788;47.930;9.766;2023-01-15T13:30:32;3.40;99.90
21261;DHT22;10788;47.930;9.766;2023-01-15T13:33:27;3.40;99.90
21261;DHT22;10788;47.930;9.766;2023-01-15T13:36:23;3.40;99.90
21261;DHT22;10788;47.930;9.766;2023-01-15T13:38:52;3.20;99.90
21261;DHT22;10788;47.930;9.766;2023-01-15T13:41:27;3.20;99.90
21261;DHT22;10788;47.930;9.766;2023-01-15T13:44:17;3.10;99.90
21261;DHT22;10788;47.930;9.766;2023-01-15T13:46:44;3.10;99.90
21261;DHT22;10788;47.930;9.766;2023-01-15T13:49:19;3.10;99.90
21261;DHT22;10788;47.930;9.766;2023-01-15T13:51:48;3.00;99.90
21261;DHT22;10788;47.930;9.766;2023-01-15T13:54:19;3.00;99.90
21261;DHT22;10788;47.930;9.766;2023-01-15T13:56:46;3.00;99.90
21261;DHT22;10788;47.930;9.766;2023-01-15T14:01:56;3.00;99.90
21261;DHT22;10788;47.930;9.766;2023-01-15T14:04:34;3.00;99.90
21261;DHT22;10788;47.930;9.766;2023-01-15T14:07:00;3.00;99.90
21261;DHT22;10788;47.930;9.766;2023-01-15T14:09:28;3.00;99.90
21261;DHT22;10788;47.930;9.766;2023-01-15T14:25:57;2.90;99.90
21261;DHT22;10788;47.930;9.766;2023-01-15T14:28:59;2.90;99.90
21261;DHT22;10788;47.930;9.766;2023-01-15T14:31:47;2.80;99.90
21261;DHT22;10788;47.930;9.766;2023-01-15T14:36:59;2.80;99.90
21261;DHT22;10788;47.930;9.766;2023-01-15T14:39:40;2.80;99.90
21261;DHT22;10788;47.930;9.766;2023-01-15T14:45:00;2.80;99.90
21261;DHT22;10788;47.930;9.766;2023-01-15T14:47:43;2.80;99.90
21261;DHT22;10788;47.930;9.766;2023-01-15T15:04:00;2.80;99.90
21261;DHT22;10788;47.930;9.766;2023-01-15T15:06:28;2.70;99.90
21261;DHT22;10788;47.930;9.766;2023-01-15T15:08:59;2.80;99.90
21261;DHT22;10788;47.930;9.766;2023-01-15T15:11:42;2.80;99.90
21261;DHT22;10788;47.930;9.766;2023-01-15T15:14:28;2.80;99.90
21261;DHT22;10788;47.930;9.766;2023-01-15T15:16:59;2.80;99.90
21261;DHT22;10788;47.930;9.766;2023-01-15T15:19:29;2.80;99.90
21261;DHT22;10788;47.930;9.766;2023-01-15T15:21:58;2.80;99.90
21261;DHT22;10788;47.930;9.766;2023-01-15T15:24:33;2.80;99.90
21261;DHT22;10788;47.930;9.766;2023-01-15T15:27:28;2.80;99.90
21261;DHT22;10788;47.930;9.766;2023-01-15T15:30:05;2.70;99.90
21261;DHT22;10788;47.930;9.766;2023-01-15T15:32:32;2.70;99.90
21261;DHT22;10788;47.930;9.766;2023-01-15T15:35:22;2.70;99.90
21261;DHT22;10788;47.930;9.766;2023-01-15T15:37:50;2.70;99.90
21261;DHT22;10788;47.930;9.766;2023-01-15T15:40:20;2.70;99.90
21261;DHT22;10788;47.930;9.766;2023-01-15T15:43:02;2.70;99.90
21261;DHT22;10788;47.930;9.766;2023-01-15T15:45:53;2.60;99.90
21261;DHT22;10788;47.930;9.766;2023-01-15T15:48:37;2.60;99.90
21261;DHT22;10788;47.930;9.766;2023-01-15T15:54:20;2.70;99.90
21261;DHT22;10788;47.930;9.766;2023-01-15T15:56:47;2.70;99.90
21261;DHT22;10788;47.930;9.766;2023-01-15T16:02:19;2.60;99.90
21261;DHT22;10788;47.930;9.766;2023-01-15T16:04:48;2.70;99.90
21261;DHT22;10788;47.930;9.766;2023-01-15T16:09:53;2.80;99.90
21261;DHT22;10788;47.930;9.766;2023-01-15T16:12:20;2.70;99.90
21261;DHT22;10788;47.930;9.766;2023-01-15T16:14:47;2.70;99.90
21261;DHT22;10788;47.930;9.766;2023-01-15T16:17:14;2.70;99.90
21261;DHT22;10788;47.930;9.766;2023-01-15T16:19:41;2.70;99.90
21261;DHT22;10788;47.930;9.766;2023-01-15T16:22:09;2.60;99.90
21261;DHT22;10788;47.930;9.766;2023-01-15T16:24:36;2.70;99.90
21261;DHT22;10788;47.930;9.766;2023-01-15T16:27:06;2.70;99.90
21261;DHT22;10788;47.930;9.766;2023-01-15T16:29:35;2.70;99.90
21261;DHT22;10788;47.930;9.766;2023-01-15T16:32:11;2.70;99.90
21261;DHT22;10788;47.930;9.766;2023-01-15T16:34:38;2.70;99.90
21261;DHT22;10788;47.930;9.766;2023-01-15T16:37:22;2.70;99.90
21261;DHT22;10788;47.930;9.766;2023-01-15T16:39:49;2.70;99.90
21261;DHT22;10788;47.930;9.766;2023-01-15T16:42:29;2.70;99.90
21261;DHT22;10788;47.930;9.766;2023-01-15T16:44:58;2.60;99.90
21261;DHT22;10788;47.930;9.766;2023-01-15T16:47:31;2.70;99.90
21261;DHT22;10788;47.930;9.766;2023-01-15T16:52:51;2.70;99.90
21261;DHT22;10788;47.930;9.766;2023-01-15T16:55:44;2.70;99.90
21261;DHT22;10788;47.930;9.766;2023-01-15T16:58:14;2.80;99.90
21261;DHT22;10788;47.930;9.766;2023-01-15T17:00:49;2.70;99.90
21261;DHT22;10788;47.930;9.766;2023-01-15T17:03:23;2.70;99.90
21261;DHT22;10788;47.930;9.766;2023-01-15T17:06:11;2.80;99.90
21261;DHT22;10788;47.930;9.766;2023-01-15T17:08:38;2.90;99.90
21261;DHT22;10788;47.930;9.766;2023-01-15T17:11:05;2.90;99.90
21261;DHT22;10788;47.930;9.766;2023-01-15T17:13:39;2.80;99.90
21261;DHT22;10788;47.930;9.766;2023-01-15T17:16:25;2.80;99.90
21261;DHT22;10788;47.930;9.766;2023-01-15T17:18:51;2.80;99.90
21261;DHT22;10788;47.930;9.766;2023-01-15T17:21:19;2.80;99.90
21261;DHT22;10788;47.930;9.766;2023-01-15T17:23:48;2.80;99.90
21261;DHT22;10788;47.930;9.766;2023-01-15T17:26:24;2.70;99.90
21261;DHT22;10788;47.930;9.766;2023-01-15T17:28:51;2.80;99.90
21261;DHT22;10788;47.930;9.766;2023-01-15T17:33:42;2.80;99.90
21261;DHT22;10788;47.930;9.766;2023-01-15T17:36:08;2.70;99.90
21261;DHT22;10788;47.930;9.766;2023-01-15T17:38:34;2.70;99.90
21261;DHT22;10788;47.930;9.766;2023-01-15T17:41:00;2.70;99.90
21261;DHT22;10788;47.930;9.766;2023-01-15T17:43:27;2.70;99.90
21261;DHT22;10788;47.930;9.766;2023-01-15T17:45:53;2.70;99.90
21261;DHT22;10788;47.930;9.766;2023-01-15T17:48:19;2.60;99.90
21261;DHT22;10788;47.930;9.766;2023-01-15T17:50:44;2.60;99.90
21261;DHT22;10788;47.930;9.766;2023-01-15T17:53:10;2.60;99.90
21261;DHT22;10788;47.930;9.766;2023-01-15T17:55:36;2.50;99.90
21261;DHT22;10788;47.930;9.766;2023-01-15T17:58:20;2.50;99.90
21261;DHT22;10788;47.930;9.766;2023-01-15T18:01:11;2.60;99.90
21261;DHT22;10788;47.930;9.766;2023-01-15T18:03:58;2.60;99.90
21261;DHT22;10788;47.930;9.766;2023-01-15T18:06:49;2.50;99.90
21261;DHT22;10788;47.930;9.766;2023-01-15T18:09:16;2.60;99.90
21261;DHT22;10788;47.930;9.766;2023-01-15T18:11:43;2.60;99.90
21261;DHT22;10788;47.930;9.766;2023-01-15T18:14:09;2.60;99.90
21261;DHT22;10788;47.930;9.766;2023-01-15T18:16:35;2.60;99.90
21261;DHT22;10788;47.930;9.766;2023-01-15T18:19:01;2.60;99.90
21261;DHT22;10788;47.930;9.766;2023-01-15T18:21:26;2.50;99.90
21261;DHT22;10788;47.930;9.766;2023-01-15T18:23:52;2.60;99.90
21261;DHT22;10788;47.930;9.766;2023-01-15T18:26:18;2.40;99.90
21261;DHT22;10788;47.930;9.766;2023-01-15T18:28:44;2.40;99.90
21261;DHT22;10788;47.930;9.766;2023-01-15T18:31:10;2.30;99.90
21261;DHT22;10788;47.930;9.766;2023-01-15T18:33:36;2.30;99.90
21261;DHT22;10788;47.930;9.766;2023-01-15T18:36:07;2.30;99.90
21261;DHT22;10788;47.930;9.766;2023-01-15T18:38:43;2.30;99.90
21261;DHT22;10788;47.930;9.766;2023-01-15T18:41:11;2.20;99.90
21261;DHT22;10788;47.930;9.766;2023-01-15T18:43:37;2.20;99.90
21261;DHT22;10788;47.930;9.766;2023-01-15T18:46:21;2.20;99.90
21261;DHT22;10788;47.930;9.766;2023-01-15T18:49:06;2.10;99.90